KGTF/GTF METAR and TAF weather

Enter ICAO airport designator
Station Type Date Time Source
KGTF METAR 2019/10/14 04:53 UTC NOAA

KGTF 140453Z 23007KT 10SM BKN100 08/M01 A2975 RMK AO2 SLP084 T00781011 $


Station Type Date Time Source
KGTF Decoded METAR 2019/10/14 04:53 UTC NOAA

GREAT FALLS INTERNATIONAL, MT, United States (KGTF) 47-28N 111-23W 1119M
Oct 14, 2019 - 12:53 AM EDT / 2019.10.14 0453 UTC
Wind: from the SW (230 degrees) at 8 MPH (7 KT):0
Visibility: 10 mile(s):0
Sky conditions: mostly cloudy
Temperature: 46.0 F (7.8 C)
Dew Point: 30.0 F (-1.1 C)
Relative Humidity: 53%
Pressure (altimeter): 29.75 in. Hg (1007 hPa)
ob: KGTF 140453Z 23007KT 10SM BKN100 08/M01 A2975 RMK AO2 SLP084 T00781011
cycle: 5

Station Type Date Time Source
KGTF TAF 2019/10/14 06:44 UTC NOAA

TAF KGTF 140543Z 1406/1506 23008KT P6SM SCT070 BKN100
FM141400 31010G19KT P6SM VCSH SCT040 BKN070 PROB30 1417/1423 -SHRA BKN035
FM150200 30007KT P6SM SCT035 BKN060

Example: see airport list